RORA(METAR)
02/20 12:00
RORA 200300Z 07007KT 9999 BKN020 23/19 Q1022 RMK A3019=
戻る
トップページへ戻る
IMOC Co,.Ltd.